Waikoloa, Hawaii
Current Conditions -  °F | °C
As of 2:53 PM on Friday 28 Nov 2014 (Local Time) from PHKO Reporting Station
Scattered Clouds Scattered Clouds  
Wind Chill: 85°   Ceiling: Unl
Heat Index: 88°   Visibility: 10mi
Dew Point: 68°   Wind: 13mph
Humidity: 57%   Direction: 170°S
Pressure: 29.9"   Gusts: NA
Location:  19.83°N, 155.84°W
Report Text: PHKO 290053Z 17011KT 10SM SCT050 SCT200 29/20 A2990 RMK AO2 SLP126 T02940200
Loading
Personal Weather Stations






























Interactive Weather Map New forecast layout! Learn more

10-Day Weather Forecast

Advertisements
Track Severe Weather on mobile